createdAt,value
2023-04-18T00:00:37.630Z,7.94
2023-04-18T00:01:37.662Z,7.95
2023-04-18T00:02:37.860Z,7.91
2023-04-18T00:03:37.704Z,7.87
2023-04-18T00:04:37.700Z,7.90
2023-04-18T00:05:37.589Z,7.85
2023-04-18T00:06:37.558Z,7.85
2023-04-18T00:07:37.547Z,7.82
2023-04-18T00:08:37.544Z,7.83
2023-04-18T00:09:37.669Z,7.80
2023-04-18T00:10:37.516Z,7.77
2023-04-18T00:11:37.508Z,7.75
2023-04-18T00:12:37.482Z,7.75
2023-04-18T00:13:37.472Z,7.73
2023-04-18T00:14:37.472Z,7.68
2023-04-18T00:15:37.454Z,7.70
2023-04-18T00:16:37.472Z,7.68
2023-04-18T00:17:37.442Z,7.67
2023-04-18T00:18:37.415Z,7.61
2023-04-18T00:19:37.403Z,7.58
2023-04-18T00:20:37.418Z,7.58
2023-04-18T00:21:37.395Z,7.62
2023-04-18T00:22:37.380Z,7.64
2023-04-18T00:23:37.367Z,7.67
2023-04-18T00:24:37.348Z,7.67
2023-04-18T00:25:37.332Z,7.64
2023-04-18T00:26:37.318Z,7.65
2023-04-18T00:27:37.314Z,7.62
2023-04-18T00:28:37.304Z,7.67
2023-04-18T00:29:37.288Z,7.68
2023-04-18T00:30:37.366Z,7.70
2023-04-18T00:31:37.262Z,7.68
2023-04-18T00:32:37.280Z,7.67
2023-04-18T00:33:37.239Z,7.67
2023-04-18T00:34:37.249Z,7.70
2023-04-18T00:35:37.222Z,7.67
2023-04-18T00:36:37.227Z,7.65
2023-04-18T00:37:37.201Z,7.65
2023-04-18T00:38:37.191Z,7.61
2023-04-18T00:39:37.180Z,7.58
2023-04-18T00:40:37.157Z,7.60
2023-04-18T00:41:37.159Z,7.60
2023-04-18T00:42:37.179Z,7.60
2023-04-18T00:43:37.197Z,7.57
2023-04-18T00:44:37.129Z,7.54
2023-04-18T00:45:37.108Z,7.55
2023-04-18T00:46:37.190Z,7.54
2023-04-18T00:47:37.099Z,7.55
2023-04-18T00:48:37.065Z,7.60
2023-04-18T00:49:37.054Z,7.58
2023-04-18T00:50:37.048Z,7.54
2023-04-18T00:51:37.034Z,7.52
2023-04-18T00:52:37.048Z,7.52
2023-04-18T00:53:37.016Z,7.52
2023-04-18T00:54:37.011Z,7.54
2023-04-18T00:55:36.984Z,7.54
2023-04-18T00:56:36.981Z,7.57
2023-04-18T00:57:36.986Z,7.55
2023-04-18T00:58:36.964Z,7.57
2023-04-18T00:59:36.938Z,7.57
2023-04-18T01:00:36.950Z,7.57
2023-04-18T01:01:36.972Z,7.55
2023-04-18T01:02:37.013Z,7.55
2023-04-18T01:03:36.974Z,7.57
2023-04-18T01:04:36.924Z,7.57
2023-04-18T01:05:36.878Z,7.55
2023-04-18T01:06:36.857Z,7.57
2023-04-18T01:07:36.854Z,7.60
2023-04-18T01:08:36.864Z,7.58
2023-04-18T01:09:36.821Z,7.55
2023-04-18T01:10:36.824Z,7.52
2023-04-18T01:11:36.796Z,7.50
2023-04-18T01:12:36.789Z,7.49
2023-04-18T01:13:36.778Z,7.47
2023-04-18T01:14:36.778Z,7.50
2023-04-18T01:15:36.779Z,7.54
2023-04-18T01:16:36.738Z,7.52
2023-04-18T01:17:36.758Z,7.55
2023-04-18T01:18:36.762Z,7.52
2023-04-18T01:19:36.714Z,7.55
2023-04-18T01:20:36.710Z,7.55
2023-04-18T01:21:36.679Z,7.57
2023-04-18T01:22:36.672Z,7.60
2023-04-18T01:23:36.666Z,7.60
2023-04-18T01:24:36.670Z,7.61
2023-04-18T01:25:36.635Z,7.57
2023-04-18T01:26:36.626Z,7.57
2023-04-18T01:27:36.621Z,7.55
2023-04-18T01:28:36.612Z,7.58
2023-04-18T01:29:38.942Z,7.58
2023-04-18T01:30:36.583Z,7.58
2023-04-18T01:31:36.627Z,7.60
2023-04-18T01:32:36.598Z,7.61
2023-04-18T01:33:36.547Z,7.61
2023-04-18T01:34:36.528Z,7.58
2023-04-18T01:35:36.515Z,7.60
2023-04-18T01:36:36.569Z,7.61
2023-04-18T01:37:36.508Z,7.61
2023-04-18T01:38:36.486Z,7.61
2023-04-18T01:39:36.480Z,7.62
2023-04-18T01:40:36.609Z,7.61
2023-04-18T01:41:36.447Z,7.61
2023-04-18T01:42:36.447Z,7.55
2023-04-18T01:43:36.431Z,7.57
2023-04-18T01:44:36.421Z,7.54
2023-04-18T01:45:36.397Z,7.52
2023-04-18T01:46:36.495Z,7.46
2023-04-18T01:47:36.414Z,7.47
2023-04-18T01:48:36.374Z,7.47
2023-04-18T01:49:36.358Z,7.47
2023-04-18T01:50:36.351Z,7.49
2023-04-18T01:51:36.338Z,7.49
2023-04-18T01:52:36.327Z,7.46
2023-04-18T01:53:36.314Z,7.46
2023-04-18T01:54:36.302Z,7.47
2023-04-18T01:55:36.293Z,7.47
2023-04-18T01:56:36.310Z,7.47
2023-04-18T01:57:36.270Z,7.47
2023-04-18T01:58:36.249Z,7.46
2023-04-18T01:59:36.253Z,7.44
2023-04-18T02:00:36.298Z,7.44
2023-04-18T02:01:36.221Z,7.43
2023-04-18T02:02:36.325Z,7.44
2023-04-18T02:03:36.356Z,7.44
2023-04-18T02:04:36.189Z,7.43
2023-04-18T02:05:36.172Z,7.37
2023-04-18T02:06:36.163Z,7.39
2023-04-18T02:07:36.158Z,7.37
2023-04-18T02:09:36.136Z,7.34
2023-04-18T02:10:36.122Z,7.33
2023-04-18T02:11:36.106Z,7.29
2023-04-18T02:12:36.116Z,7.29
2023-04-18T02:13:36.080Z,7.29
2023-04-18T02:14:36.076Z,7.26
2023-04-18T02:15:36.060Z,7.26
2023-04-18T02:16:36.099Z,7.24
2023-04-18T02:17:36.043Z,7.22
2023-04-18T02:18:36.026Z,7.22
2023-04-18T02:19:36.018Z,7.18
2023-04-18T02:20:36.005Z,7.18
2023-04-18T02:21:35.993Z,7.16
2023-04-18T02:22:35.973Z,7.16
2023-04-18T02:23:35.969Z,7.15
2023-04-18T02:24:35.960Z,7.15
2023-04-18T02:25:35.961Z,7.15
2023-04-18T02:26:35.940Z,7.19
2023-04-18T02:27:35.921Z,7.19
2023-04-18T02:28:35.944Z,7.19
2023-04-18T02:29:35.896Z,7.22
2023-04-18T02:30:35.883Z,7.24
2023-04-18T02:31:35.915Z,7.25
2023-04-18T02:32:35.929Z,7.28
2023-04-18T02:33:35.868Z,7.29
2023-04-18T02:34:35.847Z,7.31
2023-04-18T02:35:35.826Z,7.33
2023-04-18T02:36:35.818Z,7.34
2023-04-18T02:37:35.811Z,7.36
2023-04-18T02:38:35.803Z,7.36
2023-04-18T02:39:35.784Z,7.36
2023-04-18T02:40:35.780Z,7.36
2023-04-18T02:41:35.774Z,7.39
2023-04-18T02:42:35.758Z,7.39
2023-04-18T02:43:35.741Z,7.42
2023-04-18T02:44:35.752Z,7.40
2023-04-18T02:45:35.736Z,7.40
2023-04-18T02:46:35.710Z,7.40
2023-04-18T02:47:46.958Z,7.42
2023-04-18T02:48:35.738Z,7.40
2023-04-18T02:49:35.666Z,7.36
2023-04-18T02:50:35.660Z,7.39
2023-04-18T02:51:35.655Z,7.36
2023-04-18T02:52:35.631Z,7.37
2023-04-18T02:53:35.627Z,7.37
2023-04-18T02:54:35.606Z,7.39
2023-04-18T02:55:35.599Z,7.42
2023-04-18T02:56:35.590Z,7.44
2023-04-18T02:57:35.579Z,7.47
2023-04-18T02:58:35.560Z,7.49
2023-04-18T02:59:35.567Z,7.47
2023-04-18T03:00:35.568Z,7.52
2023-04-18T03:01:35.550Z,7.52
2023-04-18T03:02:35.655Z,7.55
2023-04-18T03:03:35.724Z,7.57
2023-04-18T03:04:35.552Z,7.50
2023-04-18T03:05:35.489Z,7.46
2023-04-18T03:06:35.499Z,7.44
2023-04-18T03:07:35.462Z,7.44
2023-04-18T03:08:35.452Z,7.47
2023-04-18T03:09:35.447Z,7.47
2023-04-18T03:10:35.430Z,7.49
2023-04-18T03:11:35.434Z,7.49
2023-04-18T03:12:35.408Z,7.49
2023-04-18T03:13:35.424Z,7.47
2023-04-18T03:14:35.391Z,7.50
2023-04-18T03:15:35.386Z,7.50
2023-04-18T03:16:35.377Z,7.50
2023-04-18T03:17:35.418Z,7.55
2023-04-18T03:18:35.347Z,7.54
2023-04-18T03:19:35.327Z,7.52
2023-04-18T03:20:35.308Z,7.55
2023-04-18T03:21:35.302Z,7.47
2023-04-18T03:22:35.312Z,7.40
2023-04-18T03:23:35.278Z,7.37
2023-04-18T03:24:35.277Z,7.37
2023-04-18T03:25:35.262Z,7.37
2023-04-18T03:26:35.261Z,7.39
2023-04-18T03:27:35.230Z,7.42
2023-04-18T03:28:35.227Z,7.42
2023-04-18T03:29:35.213Z,7.43
2023-04-18T03:30:35.215Z,7.43
2023-04-18T03:31:35.264Z,7.42
2023-04-18T03:32:35.284Z,7.40
2023-04-18T03:33:35.184Z,7.43
2023-04-18T03:34:35.156Z,7.42
2023-04-18T03:35:35.154Z,7.44
2023-04-18T03:36:35.132Z,7.44
2023-04-18T03:37:35.128Z,7.46
2023-04-18T03:38:35.102Z,7.46
2023-04-18T03:39:35.093Z,7.46
2023-04-18T03:40:35.091Z,7.47
2023-04-18T03:41:35.079Z,7.50
2023-04-18T03:42:35.080Z,7.50
2023-04-18T03:43:35.054Z,7.52
2023-04-18T03:44:37.034Z,7.54
2023-04-18T03:45:37.032Z,7.49
2023-04-18T03:46:35.160Z,7.46
2023-04-18T03:47:35.054Z,7.47
2023-04-18T03:48:35.012Z,7.47
2023-04-18T03:49:34.986Z,7.43
2023-04-18T03:50:34.966Z,7.43
2023-04-18T03:51:36.958Z,7.46
2023-04-18T03:52:34.947Z,7.46
2023-04-18T03:53:34.937Z,7.47
2023-04-18T03:54:34.929Z,7.49
2023-04-18T03:55:34.917Z,7.46
2023-04-18T03:56:34.921Z,7.47
2023-04-18T03:57:34.892Z,7.49
2023-04-18T03:58:34.881Z,7.50
2023-04-18T03:59:34.879Z,7.52
2023-04-18T04:00:34.871Z,7.55
2023-04-18T04:01:34.873Z,7.55
2023-04-18T04:02:35.038Z,7.57
2023-04-18T04:03:34.978Z,7.57
2023-04-18T04:04:34.900Z,7.55
2023-04-18T04:05:34.812Z,7.54
2023-04-18T04:06:36.798Z,7.47
2023-04-18T04:07:34.796Z,7.44
2023-04-18T04:08:34.766Z,7.43
2023-04-18T04:09:34.760Z,7.39
2023-04-18T04:10:34.749Z,7.39
2023-04-18T04:11:34.744Z,7.39
2023-04-18T04:12:36.721Z,7.37
2023-04-18T04:13:36.728Z,7.37
2023-04-18T04:14:34.718Z,7.40
2023-04-18T04:15:34.698Z,7.42
2023-04-18T04:16:34.713Z,7.40
2023-04-18T04:17:34.733Z,7.44
2023-04-18T04:18:34.659Z,7.42
2023-04-18T04:19:36.644Z,7.43
2023-04-18T04:20:34.662Z,7.43
2023-04-18T04:21:34.620Z,7.44
2023-04-18T04:22:34.615Z,7.44
2023-04-18T04:23:34.607Z,7.44
2023-04-18T04:24:34.593Z,7.44
2023-04-18T04:25:34.579Z,7.46
2023-04-18T04:26:34.569Z,7.44
2023-04-18T04:27:34.557Z,7.44
2023-04-18T04:28:34.546Z,7.50
2023-04-18T04:29:34.532Z,7.57
2023-04-18T04:30:34.521Z,7.62
2023-04-18T04:31:34.560Z,7.70
2023-04-18T04:32:34.511Z,7.75
2023-04-18T04:33:34.488Z,7.82
2023-04-18T04:34:34.512Z,7.83
2023-04-18T04:35:34.466Z,7.83
2023-04-18T04:36:34.477Z,7.79
2023-04-18T04:37:34.443Z,7.79
2023-04-18T04:38:34.419Z,7.83
2023-04-18T04:39:34.413Z,7.90
2023-04-18T04:40:34.405Z,7.94
2023-04-18T04:41:34.390Z,7.98
2023-04-18T04:42:34.381Z,8.04
2023-04-18T04:43:34.362Z,8.11
2023-04-18T04:44:34.435Z,8.12
2023-04-18T04:45:34.394Z,8.11
2023-04-18T04:46:34.340Z,8.16
2023-04-18T04:47:34.368Z,8.18
2023-04-18T04:48:34.305Z,8.18
2023-04-18T04:49:34.316Z,8.22
2023-04-18T04:50:34.286Z,8.27
2023-04-18T04:51:34.265Z,8.33
2023-04-18T04:52:34.283Z,8.46
2023-04-18T04:53:34.245Z,8.53
2023-04-18T04:54:34.236Z,8.60
2023-04-18T04:55:34.226Z,8.67
2023-04-18T04:56:34.224Z,8.72
2023-04-18T04:57:34.206Z,8.78
2023-04-18T04:58:34.186Z,8.86
2023-04-18T04:59:34.182Z,8.93
2023-04-18T05:00:34.174Z,9.03
2023-04-18T05:01:34.188Z,9.14
2023-04-18T05:02:34.317Z,9.28
2023-04-18T05:03:34.580Z,9.40
2023-04-18T05:04:34.237Z,9.50
2023-04-18T05:05:34.113Z,9.65
2023-04-18T05:06:34.096Z,9.77
2023-04-18T05:07:34.090Z,9.90
2023-04-18T05:08:34.102Z,9.96
2023-04-18T05:09:34.061Z,10.05
2023-04-18T05:10:34.050Z,10.14
2023-04-18T05:11:34.044Z,10.27
2023-04-18T05:12:34.022Z,10.34
2023-04-18T05:13:34.019Z,10.36
2023-04-18T05:14:34.006Z,10.31
2023-04-18T05:15:33.991Z,10.30
2023-04-18T05:16:34.029Z,10.36
2023-04-18T05:17:34.001Z,10.43
2023-04-18T05:18:35.122Z,10.61
2023-04-18T05:19:33.985Z,10.77
2023-04-18T05:20:33.940Z,10.94
2023-04-18T05:21:33.928Z,11.07
2023-04-18T05:22:33.923Z,11.22
2023-04-18T05:23:33.904Z,11.31
2023-04-18T05:24:33.936Z,11.22
2023-04-18T05:25:33.891Z,11.18
2023-04-18T05:26:33.867Z,11.14
2023-04-18T05:27:33.861Z,11.04
2023-04-18T05:28:33.851Z,11.00
2023-04-18T05:29:33.851Z,11.03
2023-04-18T05:30:33.821Z,11.14
2023-04-18T05:31:33.913Z,11.31
2023-04-18T05:32:33.827Z,11.54
2023-04-18T05:33:33.808Z,11.74
2023-04-18T05:34:33.802Z,11.96
2023-04-18T05:35:33.775Z,12.13
2023-04-18T05:36:33.758Z,11.99
2023-04-18T05:37:33.758Z,12.02
2023-04-18T05:38:33.746Z,12.16
2023-04-18T05:39:33.752Z,12.35
2023-04-18T05:40:33.848Z,12.49
2023-04-18T05:41:33.700Z,12.54
2023-04-18T05:42:33.693Z,12.69
2023-04-18T05:43:33.687Z,12.83
2023-04-18T05:44:33.670Z,12.96
2023-04-18T05:45:33.662Z,13.11
2023-04-18T05:46:33.694Z,13.26
2023-04-18T05:47:33.803Z,13.42
2023-04-18T05:48:33.631Z,13.52
2023-04-18T05:49:33.612Z,13.66
2023-04-18T05:50:33.608Z,13.70
2023-04-18T05:51:33.704Z,13.75
2023-04-18T05:52:33.586Z,13.85
2023-04-18T05:53:33.572Z,13.97
2023-04-18T05:54:33.566Z,13.92
2023-04-18T05:55:33.544Z,13.63
2023-04-18T05:56:33.562Z,13.27
2023-04-18T05:57:33.536Z,13.08
2023-04-18T05:58:33.509Z,12.93
2023-04-18T05:59:33.506Z,12.73
2023-04-18T06:00:33.502Z,12.73
2023-04-18T06:01:33.482Z,12.73
2023-04-18T06:02:33.633Z,12.66
2023-04-18T06:03:33.607Z,12.77
2023-04-18T06:04:33.647Z,12.88
2023-04-18T06:05:33.515Z,13.02
2023-04-18T06:06:33.422Z,13.11
2023-04-18T06:07:33.424Z,13.16
2023-04-18T06:08:33.402Z,13.04
2023-04-18T06:09:33.386Z,12.63
2023-04-18T06:10:33.389Z,12.29
2023-04-18T06:11:33.376Z,12.25
2023-04-18T06:12:33.384Z,12.25
2023-04-18T06:13:33.352Z,12.24
2023-04-18T06:14:33.324Z,12.22
2023-04-18T06:15:33.324Z,12.17
2023-04-18T06:16:33.330Z,11.98
2023-04-18T06:17:33.328Z,11.76
2023-04-18T06:18:33.302Z,11.61
2023-04-18T06:19:33.285Z,11.59
2023-04-18T06:20:33.258Z,11.64
2023-04-18T06:21:33.256Z,11.71
2023-04-18T06:22:33.238Z,11.77
2023-04-18T06:23:33.230Z,11.71
2023-04-18T06:24:33.215Z,11.71
2023-04-18T06:25:33.208Z,11.77
2023-04-18T06:26:33.215Z,11.79
2023-04-18T06:27:33.185Z,11.71
2023-04-18T06:28:33.230Z,11.66
2023-04-18T06:29:33.237Z,11.59
2023-04-18T06:30:33.159Z,11.56
2023-04-18T06:31:33.189Z,11.56
2023-04-18T06:32:33.154Z,11.48
2023-04-18T06:33:33.110Z,11.36
2023-04-18T06:34:33.098Z,11.27
2023-04-18T06:35:33.097Z,11.23
2023-04-18T06:36:33.078Z,11.27
2023-04-18T06:37:33.082Z,11.30
2023-04-18T06:38:33.061Z,11.34
2023-04-18T06:39:33.048Z,11.37
2023-04-18T06:40:33.033Z,11.34
2023-04-18T06:41:33.024Z,11.31
2023-04-18T06:42:33.018Z,11.37
2023-04-18T06:43:33.005Z,11.36
2023-04-18T06:44:33.024Z,11.36
2023-04-18T06:45:33.034Z,11.36
2023-04-18T06:46:33.039Z,11.22
2023-04-18T06:47:33.005Z,11.14
2023-04-18T06:48:32.951Z,11.08
2023-04-18T06:49:32.930Z,11.12
2023-04-18T06:50:32.933Z,11.12
2023-04-18T06:51:32.922Z,11.14
2023-04-18T06:52:32.894Z,11.14
2023-04-18T06:53:32.883Z,11.17
2023-04-18T06:54:32.879Z,11.15
2023-04-18T06:55:32.865Z,11.15
2023-04-18T06:56:35.777Z,11.08
2023-04-18T06:57:32.851Z,11.07
2023-04-18T06:58:32.831Z,11.08
2023-04-18T06:59:32.830Z,11.10
2023-04-18T07:00:32.857Z,11.10
2023-04-18T07:01:32.961Z,11.14
2023-04-18T07:02:32.887Z,11.19
2023-04-18T07:03:33.030Z,11.23
2023-04-18T07:04:32.802Z,11.19
2023-04-18T07:05:32.749Z,11.28
2023-04-18T07:06:32.740Z,11.31
2023-04-18T07:07:32.728Z,11.41
2023-04-18T07:08:32.717Z,11.55
2023-04-18T07:09:32.705Z,11.62
2023-04-18T07:10:32.701Z,11.76
2023-04-18T07:11:32.682Z,11.92
2023-04-18T07:12:32.673Z,12.06
2023-04-18T07:13:32.669Z,12.27
2023-04-18T07:14:34.223Z,12.58
2023-04-18T07:15:32.631Z,13.02
2023-04-18T07:16:32.659Z,13.53
2023-04-18T07:17:32.636Z,13.84
2023-04-18T07:18:37.989Z,14.04
2023-04-18T07:19:32.587Z,14.19
2023-04-18T07:20:32.597Z,14.37
2023-04-18T07:21:32.560Z,14.56
2023-04-18T07:22:32.555Z,14.91
2023-04-18T07:23:32.538Z,15.34
2023-04-18T07:24:32.535Z,15.81
2023-04-18T07:25:32.535Z,16.17
2023-04-18T07:26:32.525Z,16.51
2023-04-18T07:27:32.490Z,16.97
2023-04-18T07:28:32.486Z,17.49
2023-04-18T07:29:32.478Z,17.77
2023-04-18T07:30:32.463Z,17.77
2023-04-18T07:31:32.488Z,18.08
2023-04-18T07:32:32.513Z,18.29
2023-04-18T07:33:32.434Z,18.38
2023-04-18T07:34:32.408Z,18.33
2023-04-18T07:35:32.411Z,18.52
2023-04-18T07:36:32.397Z,18.70
2023-04-18T07:37:32.391Z,18.74
2023-04-18T07:38:32.404Z,18.93
2023-04-18T07:39:32.356Z,19.33
2023-04-18T07:40:32.349Z,19.70
2023-04-18T07:41:32.343Z,20.05
2023-04-18T07:42:32.324Z,20.33
2023-04-18T07:43:32.325Z,20.57
2023-04-18T07:44:32.334Z,20.69
2023-04-18T07:45:32.298Z,20.33
2023-04-18T07:46:32.443Z,20.17
2023-04-18T07:47:33.257Z,19.86
2023-04-18T07:48:32.284Z,19.46
2023-04-18T07:49:32.257Z,19.21
2023-04-18T07:50:32.240Z,19.00
2023-04-18T07:51:32.224Z,18.91
2023-04-18T07:52:32.212Z,18.74
2023-04-18T07:53:32.201Z,18.34
2023-04-18T07:54:32.200Z,18.08
2023-04-18T07:55:32.186Z,17.85
2023-04-18T07:56:32.170Z,17.62
2023-04-18T07:57:32.164Z,17.47
2023-04-18T07:58:32.143Z,17.27
2023-04-18T07:59:32.205Z,17.02
2023-04-18T08:00:32.129Z,16.86
2023-04-18T08:01:32.132Z,16.71
2023-04-18T08:02:32.252Z,16.53
2023-04-18T08:03:32.197Z,16.42
2023-04-18T08:04:32.252Z,16.28
2023-04-18T08:05:32.202Z,16.13
2023-04-18T08:06:32.066Z,16.05
2023-04-18T08:07:32.047Z,15.98
2023-04-18T08:08:32.033Z,15.80
2023-04-18T08:09:32.028Z,15.70
2023-04-18T08:10:32.016Z,15.60
2023-04-18T08:11:32.020Z,15.50
2023-04-18T08:12:32.000Z,15.46
2023-04-18T08:13:31.978Z,15.42
2023-04-18T08:14:31.969Z,15.39
2023-04-18T08:15:31.957Z,15.31
2023-04-18T08:16:32.036Z,15.19
2023-04-18T08:17:31.955Z,15.11
2023-04-18T08:18:31.931Z,15.03
2023-04-18T08:19:31.912Z,14.92
2023-04-18T08:20:32.061Z,14.81
2023-04-18T08:21:31.890Z,14.69
2023-04-18T08:22:31.896Z,14.55
2023-04-18T08:23:31.872Z,14.55
2023-04-18T08:24:31.852Z,14.58
2023-04-18T08:25:31.878Z,14.59
2023-04-18T08:26:31.829Z,14.58
2023-04-18T08:27:31.820Z,14.55
2023-04-18T08:28:31.805Z,14.48
2023-04-18T08:29:31.795Z,14.46
2023-04-18T08:30:31.793Z,14.38
2023-04-18T08:31:31.907Z,14.36
2023-04-18T08:32:31.800Z,14.37
2023-04-18T08:33:31.753Z,14.34
2023-04-18T08:34:31.740Z,14.27
2023-04-18T08:35:31.731Z,14.23
2023-04-18T08:36:31.840Z,14.18
2023-04-18T08:37:31.704Z,14.18
2023-04-18T08:38:31.698Z,14.21
2023-04-18T08:39:31.678Z,14.23
2023-04-18T08:40:31.664Z,14.23
2023-04-18T08:41:31.650Z,14.21
2023-04-18T08:42:31.642Z,14.11
2023-04-18T08:43:31.671Z,13.97
2023-04-18T08:44:31.618Z,13.96
2023-04-18T08:45:31.662Z,13.89
2023-04-18T08:46:31.604Z,13.85
2023-04-18T08:47:31.688Z,13.85
2023-04-18T08:48:31.617Z,13.89
2023-04-18T08:49:31.581Z,13.95
2023-04-18T08:50:31.552Z,13.96
2023-04-18T08:51:31.538Z,13.97
2023-04-18T08:52:31.675Z,13.99
2023-04-18T08:53:31.517Z,14.08
2023-04-18T08:54:31.508Z,14.02
2023-04-18T08:55:31.494Z,13.99
2023-04-18T08:56:31.488Z,14.02
2023-04-18T08:57:31.472Z,13.96
2023-04-18T08:58:31.457Z,13.96
2023-04-18T08:59:31.442Z,13.96
2023-04-18T09:00:31.437Z,13.97
2023-04-18T09:01:31.466Z,13.95
2023-04-18T09:02:31.512Z,13.90
2023-04-18T09:03:31.448Z,13.84
2023-04-18T09:04:31.501Z,13.84
2023-04-18T09:05:31.397Z,13.89
2023-04-18T09:06:31.358Z,13.85
2023-04-18T09:07:31.356Z,13.84
2023-04-18T09:08:31.422Z,13.87
2023-04-18T09:09:37.334Z,13.95
2023-04-18T09:10:31.317Z,14.04
2023-04-18T09:11:31.309Z,14.22
2023-04-18T09:12:31.298Z,14.45
2023-04-18T09:13:31.297Z,14.69
2023-04-18T09:14:31.268Z,14.89
2023-04-18T09:15:31.311Z,14.92
2023-04-18T09:16:31.326Z,15.10
2023-04-18T09:17:31.315Z,15.28
2023-04-18T09:18:31.226Z,15.37
2023-04-18T09:19:31.211Z,15.29
2023-04-18T09:20:31.208Z,15.34
2023-04-18T09:21:31.190Z,15.48
2023-04-18T09:22:31.171Z,15.59
2023-04-18T09:23:31.173Z,15.76
2023-04-18T09:24:31.246Z,15.93
2023-04-18T09:25:31.143Z,16.10
2023-04-18T09:26:31.135Z,16.31
2023-04-18T09:27:31.127Z,16.50
2023-04-18T09:28:31.118Z,16.69
2023-04-18T09:29:31.097Z,16.78
2023-04-18T09:30:31.090Z,16.90
2023-04-18T09:31:31.115Z,17.06
2023-04-18T09:32:31.165Z,17.19
2023-04-18T09:33:31.060Z,17.27
2023-04-18T09:34:31.044Z,17.35
2023-04-18T09:35:31.045Z,17.45
2023-04-18T09:36:31.070Z,17.54
2023-04-18T09:37:31.018Z,17.56
2023-04-18T09:38:31.014Z,17.59
2023-04-18T09:39:31.010Z,17.57
2023-04-18T09:40:31.153Z,17.56
2023-04-18T09:41:30.987Z,17.53
2023-04-18T09:42:30.960Z,17.56
2023-04-18T09:43:30.943Z,17.64
2023-04-18T09:44:30.956Z,17.64
2023-04-18T09:45:30.925Z,17.64
2023-04-18T09:46:30.945Z,17.67
2023-04-18T09:47:30.971Z,17.71
2023-04-18T09:48:30.888Z,17.82
2023-04-18T09:49:30.877Z,17.90
2023-04-18T09:50:30.874Z,17.98
2023-04-18T09:51:30.866Z,17.98
2023-04-18T09:52:30.840Z,18.00
2023-04-18T09:53:30.834Z,17.98
2023-04-18T09:54:30.841Z,17.98
2023-04-18T09:55:30.817Z,17.96
2023-04-18T09:56:30.876Z,17.92
2023-04-18T09:57:30.783Z,17.95
2023-04-18T09:58:30.775Z,17.92
2023-04-18T09:59:30.759Z,17.83
2023-04-18T10:00:30.759Z,17.70
2023-04-18T10:01:30.780Z,17.64
2023-04-18T10:02:30.799Z,17.65
2023-04-18T10:03:30.898Z,17.72
2023-04-18T10:04:30.802Z,17.70
2023-04-18T10:05:30.759Z,17.65
2023-04-18T10:06:30.674Z,17.59
2023-04-18T10:07:30.685Z,17.39
2023-04-18T10:08:30.673Z,17.12
2023-04-18T10:09:30.645Z,17.04
2023-04-18T10:10:30.636Z,17.06
2023-04-18T10:11:30.618Z,17.10
2023-04-18T10:12:30.639Z,17.14
2023-04-18T10:13:30.599Z,17.07
2023-04-18T10:14:30.635Z,17.01
2023-04-18T10:15:30.581Z,16.99
2023-04-18T10:16:30.588Z,17.02
2023-04-18T10:17:30.558Z,17.09
2023-04-18T10:18:30.579Z,17.10
2023-04-18T10:19:30.542Z,17.16
2023-04-18T10:20:30.510Z,17.28
2023-04-18T10:21:30.504Z,17.35
2023-04-18T10:22:30.496Z,17.31
2023-04-18T10:23:30.488Z,17.34
2023-04-18T10:24:30.483Z,17.30
2023-04-18T10:25:30.462Z,17.34
2023-04-18T10:26:30.457Z,17.38
2023-04-18T10:27:36.475Z,17.45
2023-04-18T10:28:30.426Z,17.41
2023-04-18T10:29:30.410Z,17.41
2023-04-18T10:30:30.407Z,17.41
2023-04-18T10:31:30.424Z,17.41
2023-04-18T10:32:30.418Z,17.50
2023-04-18T10:33:32.288Z,17.56
2023-04-18T10:34:30.367Z,17.65
2023-04-18T10:35:30.351Z,17.72
2023-04-18T10:36:30.354Z,17.78
2023-04-18T10:37:30.333Z,17.87
2023-04-18T10:38:30.312Z,17.82
2023-04-18T10:39:30.298Z,17.82
2023-04-18T10:40:30.298Z,17.82
2023-04-18T10:41:30.286Z,17.89
2023-04-18T10:42:30.266Z,17.93
2023-04-18T10:43:30.307Z,17.95
2023-04-18T10:44:30.250Z,17.87
2023-04-18T10:45:30.239Z,17.77
2023-04-18T10:46:32.495Z,17.72
2023-04-18T10:47:30.347Z,17.70
2023-04-18T10:48:30.271Z,17.62
2023-04-18T10:49:32.580Z,17.62
2023-04-18T10:50:30.179Z,17.65
2023-04-18T10:51:30.172Z,17.65
2023-04-18T10:52:30.235Z,17.61
2023-04-18T10:53:30.146Z,17.52
2023-04-18T10:54:30.126Z,17.41
2023-04-18T10:55:30.116Z,17.30
2023-04-18T10:56:30.128Z,17.13
2023-04-18T10:57:30.122Z,16.97
2023-04-18T10:58:30.091Z,16.82
2023-04-18T10:59:30.110Z,16.68
2023-04-18T11:00:30.069Z,16.61
2023-04-18T11:01:32.399Z,16.72
2023-04-18T11:02:30.448Z,16.81
2023-04-18T11:03:30.100Z,16.94
2023-04-18T11:04:30.102Z,16.95
2023-04-18T11:05:30.007Z,17.01
2023-04-18T11:06:29.996Z,16.86
2023-04-18T11:07:30.119Z,16.82
2023-04-18T11:08:29.981Z,16.90
2023-04-18T11:09:29.962Z,16.94
2023-04-18T11:10:29.957Z,17.06
2023-04-18T11:11:29.937Z,17.22
2023-04-18T11:12:29.928Z,17.25
2023-04-18T11:13:29.939Z,17.34
2023-04-18T11:14:29.997Z,17.43
2023-04-18T11:15:31.120Z,17.50
2023-04-18T11:16:29.949Z,17.54
2023-04-18T11:17:29.897Z,17.59
2023-04-18T11:18:29.861Z,17.59
2023-04-18T11:19:29.843Z,17.59
2023-04-18T11:20:29.845Z,17.61
2023-04-18T11:21:30.799Z,17.61
2023-04-18T11:22:29.838Z,17.57
2023-04-18T11:23:29.816Z,17.52
2023-04-18T11:24:29.798Z,17.19
2023-04-18T11:25:29.836Z,17.16
2023-04-18T11:26:29.771Z,17.25
2023-04-18T11:27:29.757Z,17.35
2023-04-18T11:28:29.750Z,17.46
2023-04-18T11:29:29.755Z,17.59
2023-04-18T11:30:29.731Z,17.70
2023-04-18T11:31:35.776Z,17.75
2023-04-18T11:32:29.978Z,17.78
2023-04-18T11:33:29.701Z,17.71
2023-04-18T11:34:35.698Z,17.71
2023-04-18T11:35:29.662Z,17.77
2023-04-18T11:36:29.669Z,17.80
2023-04-18T11:37:29.659Z,17.87
2023-04-18T11:38:29.629Z,17.95
2023-04-18T11:39:29.630Z,17.87
2023-04-18T11:40:29.624Z,17.78
2023-04-18T11:41:29.600Z,17.77
2023-04-18T11:42:29.615Z,17.70
2023-04-18T11:43:29.590Z,17.78
2023-04-18T11:44:29.558Z,17.85
2023-04-18T11:45:29.556Z,17.90
2023-04-18T11:46:29.636Z,17.92
2023-04-18T11:47:29.663Z,17.78
2023-04-18T11:48:29.514Z,17.78
2023-04-18T11:49:29.521Z,17.86
2023-04-18T11:50:29.495Z,17.93
2023-04-18T11:51:29.496Z,17.95
2023-04-18T11:52:29.502Z,18.01
2023-04-18T11:53:29.473Z,17.92
2023-04-18T11:54:29.456Z,17.92
2023-04-18T11:55:29.457Z,17.96
2023-04-18T11:56:29.438Z,18.04
2023-04-18T11:57:29.419Z,18.08
2023-04-18T11:58:29.413Z,18.07
2023-04-18T11:59:29.388Z,18.04
2023-04-18T12:00:29.428Z,18.08
2023-04-18T12:01:29.369Z,18.17
2023-04-18T12:02:29.527Z,18.22
2023-04-18T12:03:29.709Z,18.22
2023-04-18T12:04:29.587Z,18.05
2023-04-18T12:05:29.504Z,18.02
2023-04-18T12:06:29.347Z,18.10
2023-04-18T12:07:29.316Z,18.11
2023-04-18T12:08:29.297Z,18.16
2023-04-18T12:09:29.283Z,18.19
2023-04-18T12:10:29.278Z,18.20
2023-04-18T12:11:29.261Z,18.19
2023-04-18T12:12:29.254Z,18.19
2023-04-18T12:13:29.255Z,18.12
2023-04-18T12:14:29.224Z,18.05
2023-04-18T12:15:29.244Z,18.01
2023-04-18T12:16:29.323Z,18.02
2023-04-18T12:17:29.280Z,18.04
2023-04-18T12:18:29.198Z,18.08
2023-04-18T12:19:29.203Z,18.10
2023-04-18T12:20:29.228Z,18.12
2023-04-18T12:21:29.177Z,18.11
2023-04-18T12:22:29.163Z,18.12
2023-04-18T12:23:29.123Z,18.08
2023-04-18T12:24:29.172Z,18.07
2023-04-18T12:25:29.144Z,18.10
2023-04-18T12:26:29.139Z,18.11
2023-04-18T12:27:29.178Z,18.12
2023-04-18T12:28:29.168Z,18.19
2023-04-18T12:29:29.132Z,18.23
2023-04-18T12:30:29.052Z,18.26
2023-04-18T12:31:29.060Z,18.23
2023-04-18T12:32:29.034Z,18.19
2023-04-18T12:33:29.011Z,18.12
2023-04-18T12:34:29.001Z,18.11
2023-04-18T12:35:29.015Z,18.10
2023-04-18T12:36:28.980Z,18.07
2023-04-18T12:37:28.974Z,18.07
2023-04-18T12:38:28.956Z,18.07
2023-04-18T12:39:28.941Z,18.10
2023-04-18T12:40:28.936Z,18.11
2023-04-18T12:41:28.922Z,18.10
2023-04-18T12:42:28.908Z,18.10
2023-04-18T12:43:28.894Z,18.04
2023-04-18T12:44:28.903Z,18.02
2023-04-18T12:45:28.877Z,18.00
2023-04-18T12:46:28.942Z,17.96
2023-04-18T12:47:28.865Z,17.89
2023-04-18T12:48:28.838Z,17.86
2023-04-18T12:49:28.837Z,17.82
2023-04-18T12:50:28.833Z,17.83
2023-04-18T12:51:28.896Z,17.82
2023-04-18T12:52:28.815Z,17.85
2023-04-18T12:53:28.778Z,17.86
2023-04-18T12:54:28.782Z,17.87
2023-04-18T12:55:28.780Z,17.92
2023-04-18T12:56:28.752Z,17.92
2023-04-18T12:57:31.185Z,17.92
2023-04-18T12:58:28.719Z,17.96
2023-04-18T12:59:28.713Z,18.01
2023-04-18T13:00:28.724Z,18.00
2023-04-18T13:01:28.733Z,17.93
2023-04-18T13:02:28.848Z,17.95
2023-04-18T13:03:28.830Z,17.93